sensor_id;sensor_type;location;lat;lon;timestamp;P1;durP1;ratioP1;P2;durP2;ratioP2
39448;SDS011;25151;45.566;9.382;2023-02-15T00:02:34;6.00;;;4.60;;
39448;SDS011;25151;45.566;9.382;2023-02-15T00:05:35;5.13;;;4.28;;
39448;SDS011;25151;45.566;9.382;2023-02-15T00:08:36;5.10;;;4.45;;
39448;SDS011;25151;45.566;9.382;2023-02-15T00:11:37;6.82;;;5.15;;
39448;SDS011;25151;45.566;9.382;2023-02-15T00:14:40;5.60;;;4.25;;
39448;SDS011;25151;45.566;9.382;2023-02-15T00:17:42;6.68;;;5.00;;
39448;SDS011;25151;45.566;9.382;2023-02-15T00:20:42;6.38;;;5.03;;
39448;SDS011;25151;45.566;9.382;2023-02-15T00:23:43;5.80;;;4.95;;
39448;SDS011;25151;45.566;9.382;2023-02-15T00:26:45;5.38;;;4.53;;
39448;SDS011;25151;45.566;9.382;2023-02-15T00:29:46;7.95;;;5.65;;
39448;SDS011;25151;45.566;9.382;2023-02-15T00:32:47;8.23;;;5.50;;
39448;SDS011;25151;45.566;9.382;2023-02-15T00:35:55;7.20;;;5.65;;
39448;SDS011;25151;45.566;9.382;2023-02-15T00:38:57;6.35;;;5.13;;
39448;SDS011;25151;45.566;9.382;2023-02-15T00:41:57;6.70;;;5.10;;
39448;SDS011;25151;45.566;9.382;2023-02-15T00:44:58;6.75;;;5.30;;
39448;SDS011;25151;45.566;9.382;2023-02-15T00:47:59;8.15;;;5.28;;
39448;SDS011;25151;45.566;9.382;2023-02-15T00:51:00;6.57;;;5.32;;
39448;SDS011;25151;45.566;9.382;2023-02-15T00:54:01;6.60;;;5.20;;
39448;SDS011;25151;45.566;9.382;2023-02-15T00:57:02;7.43;;;5.70;;
39448;SDS011;25151;45.566;9.382;2023-02-15T01:00:05;6.88;;;5.50;;
39448;SDS011;25151;45.566;9.382;2023-02-15T01:03:06;7.90;;;5.75;;
39448;SDS011;25151;45.566;9.382;2023-02-15T01:06:07;5.95;;;5.10;;
39448;SDS011;25151;45.566;9.382;2023-02-15T01:09:08;6.43;;;5.70;;
39448;SDS011;25151;45.566;9.382;2023-02-15T01:12:09;6.60;;;5.60;;
39448;SDS011;25151;45.566;9.382;2023-02-15T01:15:10;5.65;;;5.05;;
39448;SDS011;25151;45.566;9.382;2023-02-15T01:18:11;6.20;;;5.35;;
39448;SDS011;25151;45.566;9.382;2023-02-15T01:21:12;7.00;;;5.60;;
39448;SDS011;25151;45.566;9.382;2023-02-15T01:24:15;7.05;;;5.60;;
39448;SDS011;25151;45.566;9.382;2023-02-15T01:27:16;7.00;;;5.63;;
39448;SDS011;25151;45.566;9.382;2023-02-15T01:30:17;7.53;;;5.70;;
39448;SDS011;25151;45.566;9.382;2023-02-15T01:33:18;7.50;;;6.03;;
39448;SDS011;25151;45.566;9.382;2023-02-15T01:36:18;6.90;;;6.00;;
39448;SDS011;25151;45.566;9.382;2023-02-15T01:39:19;6.75;;;5.72;;
39448;SDS011;25151;45.566;9.382;2023-02-15T01:42:23;8.18;;;6.05;;
39448;SDS011;25151;45.566;9.382;2023-02-15T01:45:31;6.45;;;5.30;;
39448;SDS011;25151;45.566;9.382;2023-02-15T01:48:33;6.50;;;5.60;;
39448;SDS011;25151;45.566;9.382;2023-02-15T01:51:34;7.68;;;5.80;;
39448;SDS011;25151;45.566;9.382;2023-02-15T01:54:39;6.72;;;5.72;;
39448;SDS011;25151;45.566;9.382;2023-02-15T01:57:43;8.07;;;5.45;;
39448;SDS011;25151;45.566;9.382;2023-02-15T02:00:46;7.35;;;5.78;;
39448;SDS011;25151;45.566;9.382;2023-02-15T02:03:50;6.40;;;5.72;;
39448;SDS011;25151;45.566;9.382;2023-02-15T02:06:53;7.80;;;6.15;;
39448;SDS011;25151;45.566;9.382;2023-02-15T02:09:55;6.95;;;6.05;;
39448;SDS011;25151;45.566;9.382;2023-02-15T02:12:57;6.35;;;5.50;;
39448;SDS011;25151;45.566;9.382;2023-02-15T02:16:20;6.60;;;5.18;;
39448;SDS011;25151;45.566;9.382;2023-02-15T02:19:44;6.53;;;5.80;;
39448;SDS011;25151;45.566;9.382;2023-02-15T02:26:29;6.07;;;5.43;;
39448;SDS011;25151;45.566;9.382;2023-02-15T02:39:53;5.93;;;5.10;;
39448;SDS011;25151;45.566;9.382;2023-02-15T02:46:37;5.45;;;4.90;;
39448;SDS011;25151;45.566;9.382;2023-02-15T02:50:04;7.63;;;5.70;;
39448;SDS011;25151;45.566;9.382;2023-02-15T02:53:09;6.72;;;5.45;;
39448;SDS011;25151;45.566;9.382;2023-02-15T02:56:15;5.97;;;5.38;;
39448;SDS011;25151;45.566;9.382;2023-02-15T02:59:28;8.05;;;5.32;;
39448;SDS011;25151;45.566;9.382;2023-02-15T03:02:38;6.90;;;5.75;;
39448;SDS011;25151;45.566;9.382;2023-02-15T03:05:44;7.28;;;5.50;;
39448;SDS011;25151;45.566;9.382;2023-02-15T03:08:48;6.38;;;5.40;;
39448;SDS011;25151;45.566;9.382;2023-02-15T03:11:55;6.68;;;5.63;;
39448;SDS011;25151;45.566;9.382;2023-02-15T03:14:57;6.75;;;5.70;;
39448;SDS011;25151;45.566;9.382;2023-02-15T03:18:02;7.13;;;5.63;;
39448;SDS011;25151;45.566;9.382;2023-02-15T03:21:03;7.45;;;5.70;;
39448;SDS011;25151;45.566;9.382;2023-02-15T03:24:09;6.63;;;5.57;;
39448;SDS011;25151;45.566;9.382;2023-02-15T03:27:17;6.03;;;5.20;;
39448;SDS011;25151;45.566;9.382;2023-02-15T03:30:39;6.22;;;5.63;;
39448;SDS011;25151;45.566;9.382;2023-02-15T03:33:44;7.60;;;5.65;;
39448;SDS011;25151;45.566;9.382;2023-02-15T03:36:53;7.00;;;5.70;;
39448;SDS011;25151;45.566;9.382;2023-02-15T03:44:00;6.40;;;5.53;;
39448;SDS011;25151;45.566;9.382;2023-02-15T03:47:13;6.45;;;5.63;;
39448;SDS011;25151;45.566;9.382;2023-02-15T03:50:19;6.63;;;5.57;;
39448;SDS011;25151;45.566;9.382;2023-02-15T03:53:43;6.70;;;5.88;;
39448;SDS011;25151;45.566;9.382;2023-02-15T03:56:46;6.53;;;5.47;;
39448;SDS011;25151;45.566;9.382;2023-02-15T04:00:11;7.40;;;5.88;;
39448;SDS011;25151;45.566;9.382;2023-02-15T04:03:45;7.00;;;5.05;;
39448;SDS011;25151;45.566;9.382;2023-02-15T04:06:58;7.40;;;5.25;;
39448;SDS011;25151;45.566;9.382;2023-02-15T04:09:59;7.60;;;6.13;;
39448;SDS011;25151;45.566;9.382;2023-02-15T04:13:19;7.30;;;5.28;;
39448;SDS011;25151;45.566;9.382;2023-02-15T04:16:20;8.63;;;5.88;;
39448;SDS011;25151;45.566;9.382;2023-02-15T04:19:21;7.18;;;5.55;;
39448;SDS011;25151;45.566;9.382;2023-02-15T04:22:40;7.25;;;5.88;;
39448;SDS011;25151;45.566;9.382;2023-02-15T04:26:02;6.35;;;5.05;;
39448;SDS011;25151;45.566;9.382;2023-02-15T04:29:04;5.75;;;5.15;;
39448;SDS011;25151;45.566;9.382;2023-02-15T04:32:05;6.55;;;5.28;;
39448;SDS011;25151;45.566;9.382;2023-02-15T04:35:07;7.28;;;5.45;;
39448;SDS011;25151;45.566;9.382;2023-02-15T04:38:08;5.95;;;5.18;;
39448;SDS011;25151;45.566;9.382;2023-02-15T04:41:10;7.05;;;5.53;;
39448;SDS011;25151;45.566;9.382;2023-02-15T04:44:12;6.72;;;5.45;;
39448;SDS011;25151;45.566;9.382;2023-02-15T04:47:13;5.88;;;5.25;;
39448;SDS011;25151;45.566;9.382;2023-02-15T04:50:14;6.28;;;5.38;;
39448;SDS011;25151;45.566;9.382;2023-02-15T04:53:14;5.68;;;4.95;;
39448;SDS011;25151;45.566;9.382;2023-02-15T04:56:18;6.97;;;5.45;;
39448;SDS011;25151;45.566;9.382;2023-02-15T04:59:20;6.00;;;5.10;;
39448;SDS011;25151;45.566;9.382;2023-02-15T05:02:21;7.40;;;5.28;;
39448;SDS011;25151;45.566;9.382;2023-02-15T05:05:22;6.05;;;5.10;;
39448;SDS011;25151;45.566;9.382;2023-02-15T05:08:22;6.63;;;5.25;;
39448;SDS011;25151;45.566;9.382;2023-02-15T05:11:23;5.85;;;5.13;;
39448;SDS011;25151;45.566;9.382;2023-02-15T05:14:25;5.88;;;5.15;;
39448;SDS011;25151;45.566;9.382;2023-02-15T05:17:26;5.82;;;4.70;;
39448;SDS011;25151;45.566;9.382;2023-02-15T05:20:28;6.38;;;5.28;;
39448;SDS011;25151;45.566;9.382;2023-02-15T05:23:29;5.97;;;5.28;;
39448;SDS011;25151;45.566;9.382;2023-02-15T05:26:30;6.68;;;5.63;;
39448;SDS011;25151;45.566;9.382;2023-02-15T05:29:49;7.00;;;5.30;;
39448;SDS011;25151;45.566;9.382;2023-02-15T05:32:49;8.00;;;5.55;;
39448;SDS011;25151;45.566;9.382;2023-02-15T05:35:50;5.80;;;4.78;;
39448;SDS011;25151;45.566;9.382;2023-02-15T05:38:51;6.50;;;5.53;;
39448;SDS011;25151;45.566;9.382;2023-02-15T05:41:52;5.55;;;4.50;;
39448;SDS011;25151;45.566;9.382;2023-02-15T05:44:53;5.82;;;4.50;;
39448;SDS011;25151;45.566;9.382;2023-02-15T05:47:54;6.68;;;5.97;;
39448;SDS011;25151;45.566;9.382;2023-02-15T05:50:59;5.55;;;4.90;;
39448;SDS011;25151;45.566;9.382;2023-02-15T05:54:08;7.75;;;5.15;;
39448;SDS011;25151;45.566;9.382;2023-02-15T05:57:09;6.47;;;5.32;;
39448;SDS011;25151;45.566;9.382;2023-02-15T06:00:09;4.97;;;4.30;;
39448;SDS011;25151;45.566;9.382;2023-02-15T06:03:12;5.40;;;4.78;;
39448;SDS011;25151;45.566;9.382;2023-02-15T06:06:13;5.10;;;4.57;;
39448;SDS011;25151;45.566;9.382;2023-02-15T06:09:13;6.18;;;5.57;;
39448;SDS011;25151;45.566;9.382;2023-02-15T06:12:15;5.47;;;4.85;;
39448;SDS011;25151;45.566;9.382;2023-02-15T06:15:15;5.72;;;4.70;;
39448;SDS011;25151;45.566;9.382;2023-02-15T06:18:16;5.63;;;4.70;;
39448;SDS011;25151;45.566;9.382;2023-02-15T06:21:17;6.68;;;5.22;;
39448;SDS011;25151;45.566;9.382;2023-02-15T06:24:18;6.32;;;4.90;;
39448;SDS011;25151;45.566;9.382;2023-02-15T06:27:19;7.90;;;4.88;;
39448;SDS011;25151;45.566;9.382;2023-02-15T06:30:20;5.70;;;4.47;;
39448;SDS011;25151;45.566;9.382;2023-02-15T06:33:21;5.80;;;4.93;;
39448;SDS011;25151;45.566;9.382;2023-02-15T06:36:22;5.93;;;4.85;;
39448;SDS011;25151;45.566;9.382;2023-02-15T06:39:23;5.20;;;4.47;;
39448;SDS011;25151;45.566;9.382;2023-02-15T06:42:24;5.55;;;4.80;;
39448;SDS011;25151;45.566;9.382;2023-02-15T06:45:25;5.50;;;4.78;;
39448;SDS011;25151;45.566;9.382;2023-02-15T06:51:27;7.57;;;4.32;;
39448;SDS011;25151;45.566;9.382;2023-02-15T06:54:27;6.28;;;5.20;;
39448;SDS011;25151;45.566;9.382;2023-02-15T06:57:28;4.88;;;4.35;;
39448;SDS011;25151;45.566;9.382;2023-02-15T07:00:29;9.18;;;4.63;;
39448;SDS011;25151;45.566;9.382;2023-02-15T07:03:31;6.22;;;4.47;;
39448;SDS011;25151;45.566;9.382;2023-02-15T07:06:32;5.18;;;4.05;;
39448;SDS011;25151;45.566;9.382;2023-02-15T07:09:33;5.53;;;4.55;;
39448;SDS011;25151;45.566;9.382;2023-02-15T07:12:34;6.28;;;5.38;;
39448;SDS011;25151;45.566;9.382;2023-02-15T07:15:42;5.50;;;4.57;;
39448;SDS011;25151;45.566;9.382;2023-02-15T07:18:44;6.53;;;4.95;;
39448;SDS011;25151;45.566;9.382;2023-02-15T07:21:44;8.20;;;4.65;;
39448;SDS011;25151;45.566;9.382;2023-02-15T07:24:45;7.22;;;4.28;;
39448;SDS011;25151;45.566;9.382;2023-02-15T07:27:46;7.10;;;4.53;;
39448;SDS011;25151;45.566;9.382;2023-02-15T07:30:47;5.93;;;4.43;;
39448;SDS011;25151;45.566;9.382;2023-02-15T07:33:48;6.40;;;4.45;;
39448;SDS011;25151;45.566;9.382;2023-02-15T07:36:50;8.02;;;4.28;;
39448;SDS011;25151;45.566;9.382;2023-02-15T07:39:52;4.63;;;4.07;;
39448;SDS011;25151;45.566;9.382;2023-02-15T07:42:57;5.97;;;4.78;;
39448;SDS011;25151;45.566;9.382;2023-02-15T07:45:59;5.30;;;4.50;;
39448;SDS011;25151;45.566;9.382;2023-02-15T07:49:00;5.65;;;4.15;;
39448;SDS011;25151;45.566;9.382;2023-02-15T07:52:02;5.30;;;4.20;;
39448;SDS011;25151;45.566;9.382;2023-02-15T07:55:03;5.60;;;4.70;;
39448;SDS011;25151;45.566;9.382;2023-02-15T07:58:08;5.57;;;4.28;;
39448;SDS011;25151;45.566;9.382;2023-02-15T08:01:10;4.97;;;4.30;;
39448;SDS011;25151;45.566;9.382;2023-02-15T08:04:11;5.28;;;4.78;;
39448;SDS011;25151;45.566;9.382;2023-02-15T08:07:11;7.30;;;4.15;;
39448;SDS011;25151;45.566;9.382;2023-02-15T08:10:12;6.35;;;4.35;;
39448;SDS011;25151;45.566;9.382;2023-02-15T08:13:33;10.10;;;4.40;;
39448;SDS011;25151;45.566;9.382;2023-02-15T08:19:48;6.18;;;4.07;;
39448;SDS011;25151;45.566;9.382;2023-02-15T08:22:50;6.00;;;4.30;;
39448;SDS011;25151;45.566;9.382;2023-02-15T08:25:50;8.75;;;4.78;;
39448;SDS011;25151;45.566;9.382;2023-02-15T08:28:52;9.00;;;4.45;;
39448;SDS011;25151;45.566;9.382;2023-02-15T08:31:58;10.15;;;5.60;;
39448;SDS011;25151;45.566;9.382;2023-02-15T08:35:02;11.95;;;5.03;;
39448;SDS011;25151;45.566;9.382;2023-02-15T08:38:07;14.50;;;5.35;;
39448;SDS011;25151;45.566;9.382;2023-02-15T08:41:15;16.05;;;5.80;;
39448;SDS011;25151;45.566;9.382;2023-02-15T08:44:21;15.15;;;6.07;;
39448;SDS011;25151;45.566;9.382;2023-02-15T08:47:26;15.70;;;5.30;;
39448;SDS011;25151;45.566;9.382;2023-02-15T08:50:27;13.95;;;5.70;;
39448;SDS011;25151;45.566;9.382;2023-02-15T08:57:57;13.07;;;5.57;;
39448;SDS011;25151;45.566;9.382;2023-02-15T09:00:59;10.27;;;5.95;;
39448;SDS011;25151;45.566;9.382;2023-02-15T09:08:19;14.32;;;6.22;;
39448;SDS011;25151;45.566;9.382;2023-02-15T09:11:24;10.52;;;6.18;;
39448;SDS011;25151;45.566;9.382;2023-02-15T09:14:31;13.60;;;5.63;;
39448;SDS011;25151;45.566;9.382;2023-02-15T09:57:00;15.32;;;5.03;;
39448;SDS011;25151;45.566;9.382;2023-02-15T10:57:26;7.70;;;4.25;;
39448;SDS011;25151;45.566;9.382;2023-02-15T11:08:20;6.80;;;4.25;;
39448;SDS011;25151;45.566;9.382;2023-02-15T11:11:29;6.78;;;4.72;;
39448;SDS011;25151;45.566;9.382;2023-02-15T11:14:37;7.93;;;5.03;;
39448;SDS011;25151;45.566;9.382;2023-02-15T11:17:43;7.80;;;4.40;;
39448;SDS011;25151;45.566;9.382;2023-02-15T11:20:55;6.63;;;4.47;;
39448;SDS011;25151;45.566;9.382;2023-02-15T11:27:30;6.07;;;4.15;;
39448;SDS011;25151;45.566;9.382;2023-02-15T11:30:49;6.50;;;4.30;;
39448;SDS011;25151;45.566;9.382;2023-02-15T11:34:02;5.88;;;4.47;;
39448;SDS011;25151;45.566;9.382;2023-02-15T11:37:12;8.45;;;4.53;;
39448;SDS011;25151;45.566;9.382;2023-02-15T11:40:20;6.55;;;3.97;;
39448;SDS011;25151;45.566;9.382;2023-02-15T11:47:24;7.15;;;3.90;;
39448;SDS011;25151;45.566;9.382;2023-02-15T11:50:26;5.82;;;4.50;;
39448;SDS011;25151;45.566;9.382;2023-02-15T11:53:32;7.95;;;4.32;;
39448;SDS011;25151;45.566;9.382;2023-02-15T11:56:49;7.90;;;4.20;;
39448;SDS011;25151;45.566;9.382;2023-02-15T12:05:18;6.85;;;4.47;;
39448;SDS011;25151;45.566;9.382;2023-02-15T12:08:23;8.48;;;4.15;;
39448;SDS011;25151;45.566;9.382;2023-02-15T12:11:43;5.18;;;3.97;;
39448;SDS011;25151;45.566;9.382;2023-02-15T12:14:47;5.88;;;4.22;;
39448;SDS011;25151;45.566;9.382;2023-02-15T12:17:54;10.38;;;5.18;;
39448;SDS011;25151;45.566;9.382;2023-02-15T12:20:58;7.20;;;4.25;;
39448;SDS011;25151;45.566;9.382;2023-02-15T12:27:32;7.20;;;4.70;;
39448;SDS011;25151;45.566;9.382;2023-02-15T12:30:36;6.03;;;4.15;;
39448;SDS011;25151;45.566;9.382;2023-02-15T12:33:43;6.07;;;4.80;;
39448;SDS011;25151;45.566;9.382;2023-02-15T12:36:46;7.70;;;4.55;;
39448;SDS011;25151;45.566;9.382;2023-02-15T12:39:56;9.45;;;4.43;;
39448;SDS011;25151;45.566;9.382;2023-02-15T12:42:59;10.98;;;4.63;;
39448;SDS011;25151;45.566;9.382;2023-02-15T12:50:26;9.40;;;4.18;;
39448;SDS011;25151;45.566;9.382;2023-02-15T12:53:33;13.40;;;4.32;;
39448;SDS011;25151;45.566;9.382;2023-02-15T12:56:35;8.95;;;4.25;;
39448;SDS011;25151;45.566;9.382;2023-02-15T13:02:52;7.32;;;4.25;;
39448;SDS011;25151;45.566;9.382;2023-02-15T13:05:56;6.85;;;4.60;;
39448;SDS011;25151;45.566;9.382;2023-02-15T13:09:06;6.28;;;4.45;;
39448;SDS011;25151;45.566;9.382;2023-02-15T13:16:07;7.13;;;4.15;;
39448;SDS011;25151;45.566;9.382;2023-02-15T13:19:15;8.07;;;4.50;;
39448;SDS011;25151;45.566;9.382;2023-02-15T13:22:22;7.47;;;4.22;;
39448;SDS011;25151;45.566;9.382;2023-02-15T13:25:44;7.50;;;4.28;;
39448;SDS011;25151;45.566;9.382;2023-02-15T13:28:54;8.52;;;4.38;;
39448;SDS011;25151;45.566;9.382;2023-02-15T13:32:07;11.55;;;3.92;;
39448;SDS011;25151;45.566;9.382;2023-02-15T13:35:23;8.05;;;3.88;;
39448;SDS011;25151;45.566;9.382;2023-02-15T13:55:36;10.68;;;4.25;;
39448;SDS011;25151;45.566;9.382;2023-02-15T14:16:39;10.00;;;3.65;;
39448;SDS011;25151;45.566;9.382;2023-02-15T14:19:52;7.20;;;3.63;;
39448;SDS011;25151;45.566;9.382;2023-02-15T14:23:07;5.47;;;3.75;;
39448;SDS011;25151;45.566;9.382;2023-02-15T14:26:21;5.35;;;3.47;;
39448;SDS011;25151;45.566;9.382;2023-02-15T14:32:41;11.15;;;4.10;;
39448;SDS011;25151;45.566;9.382;2023-02-15T14:35:45;8.77;;;3.90;;
39448;SDS011;25151;45.566;9.382;2023-02-15T14:42:30;5.25;;;3.50;;
39448;SDS011;25151;45.566;9.382;2023-02-15T14:48:57;6.30;;;3.72;;
39448;SDS011;25151;45.566;9.382;2023-02-15T14:52:07;10.10;;;4.00;;
39448;SDS011;25151;45.566;9.382;2023-02-15T14:55:11;6.45;;;3.90;;
39448;SDS011;25151;45.566;9.382;2023-02-15T14:58:37;3.92;;;3.45;;
39448;SDS011;25151;45.566;9.382;2023-02-15T15:01:39;7.03;;;3.50;;
39448;SDS011;25151;45.566;9.382;2023-02-15T15:07:59;7.20;;;3.50;;
39448;SDS011;25151;45.566;9.382;2023-02-15T15:14:43;6.38;;;3.28;;
39448;SDS011;25151;45.566;9.382;2023-02-15T15:18:04;5.15;;;3.45;;
39448;SDS011;25151;45.566;9.382;2023-02-15T15:28:52;8.52;;;3.85;;
39448;SDS011;25151;45.566;9.382;2023-02-15T15:31:56;5.80;;;3.45;;
39448;SDS011;25151;45.566;9.382;2023-02-15T15:42:11;6.55;;;4.00;;
39448;SDS011;25151;45.566;9.382;2023-02-15T15:48:36;5.57;;;3.37;;
39448;SDS011;25151;45.566;9.382;2023-02-15T15:51:40;5.10;;;3.30;;
39448;SDS011;25151;45.566;9.382;2023-02-15T15:54:43;5.43;;;3.63;;
39448;SDS011;25151;45.566;9.382;2023-02-15T15:57:48;7.18;;;4.13;;
39448;SDS011;25151;45.566;9.382;2023-02-15T16:00:54;4.95;;;3.88;;
39448;SDS011;25151;45.566;9.382;2023-02-15T16:04:11;5.75;;;3.90;;
39448;SDS011;25151;45.566;9.382;2023-02-15T16:07:32;4.65;;;3.33;;
39448;SDS011;25151;45.566;9.382;2023-02-15T16:10:40;5.25;;;3.25;;
39448;SDS011;25151;45.566;9.382;2023-02-15T16:13:42;3.95;;;3.38;;
39448;SDS011;25151;45.566;9.382;2023-02-15T16:16:49;6.85;;;3.80;;
39448;SDS011;25151;45.566;9.382;2023-02-15T16:19:58;5.55;;;3.38;;
39448;SDS011;25151;45.566;9.382;2023-02-15T16:30:22;5.03;;;3.45;;
39448;SDS011;25151;45.566;9.382;2023-02-15T16:33:33;5.88;;;3.67;;
39448;SDS011;25151;45.566;9.382;2023-02-15T16:36:36;5.32;;;3.50;;
39448;SDS011;25151;45.566;9.382;2023-02-15T16:39:40;4.82;;;3.53;;
39448;SDS011;25151;45.566;9.382;2023-02-15T16:42:42;5.70;;;3.78;;
39448;SDS011;25151;45.566;9.382;2023-02-15T16:45:45;10.10;;;4.07;;
39448;SDS011;25151;45.566;9.382;2023-02-15T16:48:48;8.32;;;3.70;;
39448;SDS011;25151;45.566;9.382;2023-02-15T16:51:59;6.13;;;4.00;;
39448;SDS011;25151;45.566;9.382;2023-02-15T16:55:06;7.28;;;3.40;;
39448;SDS011;25151;45.566;9.382;2023-02-15T16:58:07;6.68;;;3.60;;
39448;SDS011;25151;45.566;9.382;2023-02-15T17:01:15;5.75;;;3.50;;
39448;SDS011;25151;45.566;9.382;2023-02-15T17:04:26;6.03;;;3.28;;
39448;SDS011;25151;45.566;9.382;2023-02-15T17:07:30;4.93;;;3.28;;
39448;SDS011;25151;45.566;9.382;2023-02-15T17:13:36;4.25;;;3.38;;
39448;SDS011;25151;45.566;9.382;2023-02-15T17:16:45;10.05;;;3.67;;
39448;SDS011;25151;45.566;9.382;2023-02-15T17:19:53;5.30;;;2.95;;
39448;SDS011;25151;45.566;9.382;2023-02-15T17:22:56;6.47;;;3.65;;
39448;SDS011;25151;45.566;9.382;2023-02-15T17:25:59;5.03;;;3.50;;
39448;SDS011;25151;45.566;9.382;2023-02-15T17:29:22;6.53;;;3.65;;
39448;SDS011;25151;45.566;9.382;2023-02-15T17:32:30;6.57;;;3.60;;
39448;SDS011;25151;45.566;9.382;2023-02-15T17:35:33;5.20;;;3.95;;
39448;SDS011;25151;45.566;9.382;2023-02-15T17:38:36;4.70;;;3.25;;
39448;SDS011;25151;45.566;9.382;2023-02-15T17:41:38;4.97;;;3.50;;
39448;SDS011;25151;45.566;9.382;2023-02-15T17:44:39;7.65;;;3.20;;
39448;SDS011;25151;45.566;9.382;2023-02-15T17:47:40;4.68;;;3.10;;
39448;SDS011;25151;45.566;9.382;2023-02-15T17:50:42;4.80;;;3.00;;
39448;SDS011;25151;45.566;9.382;2023-02-15T17:53:43;3.90;;;3.08;;
39448;SDS011;25151;45.566;9.382;2023-02-15T17:57:08;4.38;;;2.90;;
39448;SDS011;25151;45.566;9.382;2023-02-15T18:00:13;5.57;;;3.42;;
39448;SDS011;25151;45.566;9.382;2023-02-15T18:03:40;5.78;;;3.33;;
39448;SDS011;25151;45.566;9.382;2023-02-15T18:07:07;4.43;;;3.20;;
39448;SDS011;25151;45.566;9.382;2023-02-15T18:10:27;4.50;;;3.58;;
39448;SDS011;25151;45.566;9.382;2023-02-15T18:13:46;6.65;;;3.85;;
39448;SDS011;25151;45.566;9.382;2023-02-15T18:16:47;5.30;;;3.53;;
39448;SDS011;25151;45.566;9.382;2023-02-15T18:19:48;4.03;;;3.25;;
39448;SDS011;25151;45.566;9.382;2023-02-15T18:22:50;4.55;;;3.58;;
39448;SDS011;25151;45.566;9.382;2023-02-15T18:25:51;6.30;;;3.63;;
39448;SDS011;25151;45.566;9.382;2023-02-15T18:28:52;6.43;;;3.60;;
39448;SDS011;25151;45.566;9.382;2023-02-15T18:31:53;4.32;;;3.47;;
39448;SDS011;25151;45.566;9.382;2023-02-15T18:34:55;4.43;;;3.50;;
39448;SDS011;25151;45.566;9.382;2023-02-15T18:37:58;4.25;;;3.42;;
39448;SDS011;25151;45.566;9.382;2023-02-15T18:41:01;4.55;;;3.00;;
39448;SDS011;25151;45.566;9.382;2023-02-15T18:44:07;6.65;;;3.88;;
39448;SDS011;25151;45.566;9.382;2023-02-15T18:47:11;7.22;;;3.90;;
39448;SDS011;25151;45.566;9.382;2023-02-15T18:50:15;6.72;;;3.63;;
39448;SDS011;25151;45.566;9.382;2023-02-15T18:53:19;3.88;;;3.10;;
39448;SDS011;25151;45.566;9.382;2023-02-15T18:56:21;4.43;;;3.22;;
39448;SDS011;25151;45.566;9.382;2023-02-15T18:59:23;7.88;;;3.50;;
39448;SDS011;25151;45.566;9.382;2023-02-15T19:02:25;7.30;;;3.20;;
39448;SDS011;25151;45.566;9.382;2023-02-15T19:05:28;5.07;;;3.63;;
39448;SDS011;25151;45.566;9.382;2023-02-15T19:08:30;6.40;;;3.55;;
39448;SDS011;25151;45.566;9.382;2023-02-15T19:11:31;4.30;;;3.25;;
39448;SDS011;25151;45.566;9.382;2023-02-15T19:14:32;8.23;;;3.22;;
39448;SDS011;25151;45.566;9.382;2023-02-15T19:17:36;11.73;;;3.22;;
39448;SDS011;25151;45.566;9.382;2023-02-15T19:20:42;5.60;;;3.53;;
39448;SDS011;25151;45.566;9.382;2023-02-15T19:23:47;6.95;;;3.53;;
39448;SDS011;25151;45.566;9.382;2023-02-15T19:26:57;4.47;;;3.30;;
39448;SDS011;25151;45.566;9.382;2023-02-15T19:30:17;7.57;;;3.70;;
39448;SDS011;25151;45.566;9.382;2023-02-15T19:33:21;6.57;;;3.63;;
39448;SDS011;25151;45.566;9.382;2023-02-15T19:36:23;6.88;;;3.13;;
39448;SDS011;25151;45.566;9.382;2023-02-15T19:42:39;4.00;;;3.00;;
39448;SDS011;25151;45.566;9.382;2023-02-15T19:45:42;4.65;;;3.25;;
39448;SDS011;25151;45.566;9.382;2023-02-15T19:48:44;4.25;;;3.15;;
39448;SDS011;25151;45.566;9.382;2023-02-15T19:51:46;4.32;;;3.38;;
39448;SDS011;25151;45.566;9.382;2023-02-15T19:54:52;5.93;;;3.55;;
39448;SDS011;25151;45.566;9.382;2023-02-15T19:57:55;4.43;;;3.20;;
39448;SDS011;25151;45.566;9.382;2023-02-15T20:00:58;7.53;;;3.45;;
39448;SDS011;25151;45.566;9.382;2023-02-15T20:04:01;5.80;;;3.78;;
39448;SDS011;25151;45.566;9.382;2023-02-15T20:07:04;4.18;;;3.42;;
39448;SDS011;25151;45.566;9.382;2023-02-15T20:10:17;4.45;;;3.20;;
39448;SDS011;25151;45.566;9.382;2023-02-15T20:13:21;6.90;;;3.63;;
39448;SDS011;25151;45.566;9.382;2023-02-15T20:16:23;6.95;;;3.72;;
39448;SDS011;25151;45.566;9.382;2023-02-15T20:19:29;4.97;;;3.20;;
39448;SDS011;25151;45.566;9.382;2023-02-15T20:25:48;3.85;;;3.10;;
39448;SDS011;25151;45.566;9.382;2023-02-15T20:28:51;5.70;;;3.10;;
39448;SDS011;25151;45.566;9.382;2023-02-15T20:31:53;6.05;;;3.50;;
39448;SDS011;25151;45.566;9.382;2023-02-15T20:35:01;4.00;;;3.10;;
39448;SDS011;25151;45.566;9.382;2023-02-15T20:38:04;4.97;;;3.35;;
39448;SDS011;25151;45.566;9.382;2023-02-15T20:41:14;4.97;;;3.10;;
39448;SDS011;25151;45.566;9.382;2023-02-15T20:44:35;4.93;;;3.00;;
39448;SDS011;25151;45.566;9.382;2023-02-15T20:47:40;4.70;;;3.40;;
39448;SDS011;25151;45.566;9.382;2023-02-15T20:50:44;4.63;;;3.28;;
39448;SDS011;25151;45.566;9.382;2023-02-15T20:53:46;5.90;;;3.25;;
39448;SDS011;25151;45.566;9.382;2023-02-15T20:56:48;4.40;;;2.92;;
39448;SDS011;25151;45.566;9.382;2023-02-15T20:59:50;3.85;;;2.83;;
39448;SDS011;25151;45.566;9.382;2023-02-15T21:02:54;4.40;;;3.30;;
39448;SDS011;25151;45.566;9.382;2023-02-15T21:05:58;4.47;;;2.90;;
39448;SDS011;25151;45.566;9.382;2023-02-15T21:09:02;3.88;;;3.47;;
39448;SDS011;25151;45.566;9.382;2023-02-15T21:12:04;5.47;;;3.35;;
39448;SDS011;25151;45.566;9.382;2023-02-15T21:15:22;7.82;;;4.18;;
39448;SDS011;25151;45.566;9.382;2023-02-15T21:18:35;6.53;;;3.92;;
39448;SDS011;25151;45.566;9.382;2023-02-15T21:21:39;7.55;;;4.18;;
39448;SDS011;25151;45.566;9.382;2023-02-15T21:24:44;6.63;;;4.28;;
39448;SDS011;25151;45.566;9.382;2023-02-15T21:27:54;6.97;;;4.68;;
39448;SDS011;25151;45.566;9.382;2023-02-15T21:30:57;8.77;;;4.90;;
39448;SDS011;25151;45.566;9.382;2023-02-15T21:34:00;7.93;;;4.45;;
39448;SDS011;25151;45.566;9.382;2023-02-15T21:37:02;8.77;;;4.70;;
39448;SDS011;25151;45.566;9.382;2023-02-15T21:40:25;8.23;;;4.47;;
39448;SDS011;25151;45.566;9.382;2023-02-15T21:43:27;7.50;;;4.63;;
39448;SDS011;25151;45.566;9.382;2023-02-15T21:46:48;7.28;;;4.55;;
39448;SDS011;25151;45.566;9.382;2023-02-15T21:50:11;9.07;;;4.43;;
39448;SDS011;25151;45.566;9.382;2023-02-15T21:53:42;7.65;;;5.72;;
39448;SDS011;25151;45.566;9.382;2023-02-15T21:56:46;5.85;;;4.18;;
39448;SDS011;25151;45.566;9.382;2023-02-15T21:59:50;7.15;;;4.45;;
39448;SDS011;25151;45.566;9.382;2023-02-15T22:02:51;6.00;;;4.10;;
39448;SDS011;25151;45.566;9.382;2023-02-15T22:05:53;6.18;;;4.40;;
39448;SDS011;25151;45.566;9.382;2023-02-15T22:08:54;8.68;;;5.57;;
39448;SDS011;25151;45.566;9.382;2023-02-15T22:11:55;6.28;;;4.60;;
39448;SDS011;25151;45.566;9.382;2023-02-15T22:14:58;19.92;;;4.90;;
39448;SDS011;25151;45.566;9.382;2023-02-15T22:18:00;7.70;;;4.90;;
39448;SDS011;25151;45.566;9.382;2023-02-15T22:21:02;6.28;;;4.65;;
39448;SDS011;25151;45.566;9.382;2023-02-15T22:24:03;7.57;;;4.50;;
39448;SDS011;25151;45.566;9.382;2023-02-15T22:27:05;6.57;;;4.63;;
39448;SDS011;25151;45.566;9.382;2023-02-15T22:33:33;6.38;;;4.80;;
39448;SDS011;25151;45.566;9.382;2023-02-15T22:36:34;10.18;;;5.28;;
39448;SDS011;25151;45.566;9.382;2023-02-15T22:39:35;6.55;;;4.70;;
39448;SDS011;25151;45.566;9.382;2023-02-15T22:42:35;5.85;;;4.90;;
39448;SDS011;25151;45.566;9.382;2023-02-15T22:45:36;5.93;;;4.72;;
39448;SDS011;25151;45.566;9.382;2023-02-15T22:48:39;7.18;;;5.28;;
39448;SDS011;25151;45.566;9.382;2023-02-15T22:51:42;6.47;;;4.93;;
39448;SDS011;25151;45.566;9.382;2023-02-15T22:54:46;8.73;;;4.78;;